sensor_id;sensor_type;location;lat;lon;timestamp;P1;durP1;ratioP1;P2;durP2;ratioP2
3801;SDS011;1916;51.798;12.246;2022-10-16T00:01:10;1.90;;;1.80;;
3801;SDS011;1916;51.798;12.246;2022-10-16T00:03:13;2.33;;;2.10;;
3801;SDS011;1916;51.798;12.246;2022-10-16T00:05:15;3.70;;;2.40;;
3801;SDS011;1916;51.798;12.246;2022-10-16T00:07:17;2.30;;;2.07;;
3801;SDS011;1916;51.798;12.246;2022-10-16T00:09:19;2.53;;;1.80;;
3801;SDS011;1916;51.798;12.246;2022-10-16T00:11:22;9.27;;;2.53;;
3801;SDS011;1916;51.798;12.246;2022-10-16T00:13:26;2.33;;;2.03;;
3801;SDS011;1916;51.798;12.246;2022-10-16T00:15:28;2.33;;;2.10;;
3801;SDS011;1916;51.798;12.246;2022-10-16T00:17:30;6.33;;;2.17;;
3801;SDS011;1916;51.798;12.246;2022-10-16T00:19:32;2.07;;;1.87;;
3801;SDS011;1916;51.798;12.246;2022-10-16T00:21:34;2.60;;;2.03;;
3801;SDS011;1916;51.798;12.246;2022-10-16T00:23:56;2.00;;;1.90;;
3801;SDS011;1916;51.798;12.246;2022-10-16T00:26:01;3.10;;;1.77;;
3801;SDS011;1916;51.798;12.246;2022-10-16T00:28:05;2.17;;;1.97;;
3801;SDS011;1916;51.798;12.246;2022-10-16T00:30:07;2.47;;;1.80;;
3801;SDS011;1916;51.798;12.246;2022-10-16T00:32:10;3.70;;;2.00;;
3801;SDS011;1916;51.798;12.246;2022-10-16T00:34:12;5.23;;;1.93;;
3801;SDS011;1916;51.798;12.246;2022-10-16T00:36:15;5.70;;;1.73;;
3801;SDS011;1916;51.798;12.246;2022-10-16T00:38:18;1.67;;;1.57;;
3801;SDS011;1916;51.798;12.246;2022-10-16T00:40:20;1.70;;;1.60;;
3801;SDS011;1916;51.798;12.246;2022-10-16T00:42:22;2.73;;;1.60;;
3801;SDS011;1916;51.798;12.246;2022-10-16T00:46:48;5.33;;;1.90;;
3801;SDS011;1916;51.798;12.246;2022-10-16T00:51:02;1.70;;;1.60;;
3801;SDS011;1916;51.798;12.246;2022-10-16T00:53:05;3.53;;;1.70;;
3801;SDS011;1916;51.798;12.246;2022-10-16T00:55:08;1.60;;;1.50;;
3801;SDS011;1916;51.798;12.246;2022-10-16T00:57:10;2.80;;;1.90;;
3801;SDS011;1916;51.798;12.246;2022-10-16T00:59:19;1.97;;;1.50;;
3801;SDS011;1916;51.798;12.246;2022-10-16T01:01:26;2.80;;;1.50;;
3801;SDS011;1916;51.798;12.246;2022-10-16T01:03:32;1.63;;;1.53;;
3801;SDS011;1916;51.798;12.246;2022-10-16T01:05:39;1.63;;;1.53;;
3801;SDS011;1916;51.798;12.246;2022-10-16T01:08:01;1.70;;;1.60;;
3801;SDS011;1916;51.798;12.246;2022-10-16T01:10:30;2.03;;;1.43;;
3801;SDS011;1916;51.798;12.246;2022-10-16T01:14:52;4.30;;;1.80;;
3801;SDS011;1916;51.798;12.246;2022-10-16T01:17:02;3.67;;;1.70;;
3801;SDS011;1916;51.798;12.246;2022-10-16T01:19:12;1.50;;;1.40;;
3801;SDS011;1916;51.798;12.246;2022-10-16T01:28:05;2.33;;;1.53;;
3801;SDS011;1916;51.798;12.246;2022-10-16T01:30:18;1.93;;;1.60;;
3801;SDS011;1916;51.798;12.246;2022-10-16T01:36:56;1.67;;;1.57;;
3801;SDS011;1916;51.798;12.246;2022-10-16T01:39:00;1.93;;;1.80;;
3801;SDS011;1916;51.798;12.246;2022-10-16T01:41:26;2.30;;;1.93;;
3801;SDS011;1916;51.798;12.246;2022-10-16T01:43:33;1.87;;;1.67;;
3801;SDS011;1916;51.798;12.246;2022-10-16T01:45:38;2.07;;;1.90;;
3801;SDS011;1916;51.798;12.246;2022-10-16T01:47:41;5.87;;;1.97;;
3801;SDS011;1916;51.798;12.246;2022-10-16T01:49:45;1.70;;;1.60;;
3801;SDS011;1916;51.798;12.246;2022-10-16T01:51:48;3.60;;;2.00;;
3801;SDS011;1916;51.798;12.246;2022-10-16T01:53:53;1.63;;;1.53;;
3801;SDS011;1916;51.798;12.246;2022-10-16T01:55:56;7.63;;;1.70;;
3801;SDS011;1916;51.798;12.246;2022-10-16T01:57:59;2.30;;;1.90;;
3801;SDS011;1916;51.798;12.246;2022-10-16T02:00:04;2.53;;;2.10;;
3801;SDS011;1916;51.798;12.246;2022-10-16T02:02:12;2.40;;;1.60;;
3801;SDS011;1916;51.798;12.246;2022-10-16T02:04:16;5.37;;;2.10;;
3801;SDS011;1916;51.798;12.246;2022-10-16T02:06:48;2.17;;;1.97;;
3801;SDS011;1916;51.798;12.246;2022-10-16T02:08:50;2.77;;;1.87;;
3801;SDS011;1916;51.798;12.246;2022-10-16T02:10:52;4.33;;;1.83;;
3801;SDS011;1916;51.798;12.246;2022-10-16T02:12:56;2.47;;;2.03;;
3801;SDS011;1916;51.798;12.246;2022-10-16T02:15:00;2.00;;;1.90;;
3801;SDS011;1916;51.798;12.246;2022-10-16T02:17:09;3.40;;;2.20;;
3801;SDS011;1916;51.798;12.246;2022-10-16T02:19:13;2.40;;;1.90;;
3801;SDS011;1916;51.798;12.246;2022-10-16T02:21:19;2.10;;;2.00;;
3801;SDS011;1916;51.798;12.246;2022-10-16T02:23:36;2.10;;;2.00;;
3801;SDS011;1916;51.798;12.246;2022-10-16T02:25:43;5.63;;;2.00;;
3801;SDS011;1916;51.798;12.246;2022-10-16T02:27:54;3.00;;;2.10;;
3801;SDS011;1916;51.798;12.246;2022-10-16T02:30:02;3.77;;;2.37;;
3801;SDS011;1916;51.798;12.246;2022-10-16T02:32:21;4.27;;;2.00;;
3801;SDS011;1916;51.798;12.246;2022-10-16T02:34:25;2.43;;;2.23;;
3801;SDS011;1916;51.798;12.246;2022-10-16T02:36:27;2.47;;;2.20;;
3801;SDS011;1916;51.798;12.246;2022-10-16T02:38:30;2.33;;;2.13;;
3801;SDS011;1916;51.798;12.246;2022-10-16T02:40:32;2.00;;;1.90;;
3801;SDS011;1916;51.798;12.246;2022-10-16T02:42:35;3.63;;;3.37;;
3801;SDS011;1916;51.798;12.246;2022-10-16T02:44:38;2.60;;;2.40;;
3801;SDS011;1916;51.798;12.246;2022-10-16T02:46:40;2.70;;;2.50;;
3801;SDS011;1916;51.798;12.246;2022-10-16T02:48:42;2.60;;;2.40;;
3801;SDS011;1916;51.798;12.246;2022-10-16T02:50:44;2.30;;;2.10;;
3801;SDS011;1916;51.798;12.246;2022-10-16T02:52:46;3.13;;;1.77;;
3801;SDS011;1916;51.798;12.246;2022-10-16T02:54:48;6.40;;;2.03;;
3801;SDS011;1916;51.798;12.246;2022-10-16T02:56:49;2.97;;;2.33;;
3801;SDS011;1916;51.798;12.246;2022-10-16T02:58:51;2.40;;;1.97;;
3801;SDS011;1916;51.798;12.246;2022-10-16T03:00:54;2.67;;;2.27;;
3801;SDS011;1916;51.798;12.246;2022-10-16T03:02:56;3.23;;;2.20;;
3801;SDS011;1916;51.798;12.246;2022-10-16T03:04:58;5.80;;;2.20;;
3801;SDS011;1916;51.798;12.246;2022-10-16T03:07:00;4.10;;;1.97;;
3801;SDS011;1916;51.798;12.246;2022-10-16T03:09:02;3.10;;;2.43;;
3801;SDS011;1916;51.798;12.246;2022-10-16T03:11:04;2.20;;;2.00;;
3801;SDS011;1916;51.798;12.246;2022-10-16T03:13:06;7.00;;;2.33;;
3801;SDS011;1916;51.798;12.246;2022-10-16T03:15:08;3.00;;;2.20;;
3801;SDS011;1916;51.798;12.246;2022-10-16T03:17:10;2.93;;;2.60;;
3801;SDS011;1916;51.798;12.246;2022-10-16T03:19:12;3.97;;;2.10;;
3801;SDS011;1916;51.798;12.246;2022-10-16T03:21:14;2.73;;;2.53;;
3801;SDS011;1916;51.798;12.246;2022-10-16T03:23:16;3.33;;;2.37;;
3801;SDS011;1916;51.798;12.246;2022-10-16T03:25:18;3.83;;;2.63;;
3801;SDS011;1916;51.798;12.246;2022-10-16T03:27:20;2.80;;;2.60;;
3801;SDS011;1916;51.798;12.246;2022-10-16T03:29:22;6.13;;;2.70;;
3801;SDS011;1916;51.798;12.246;2022-10-16T03:31:24;3.07;;;2.60;;
3801;SDS011;1916;51.798;12.246;2022-10-16T03:33:26;2.40;;;2.13;;
3801;SDS011;1916;51.798;12.246;2022-10-16T03:35:28;2.80;;;2.50;;
3801;SDS011;1916;51.798;12.246;2022-10-16T03:37:31;2.80;;;2.17;;
3801;SDS011;1916;51.798;12.246;2022-10-16T03:39:33;4.00;;;1.90;;
3801;SDS011;1916;51.798;12.246;2022-10-16T03:41:35;2.80;;;2.00;;
3801;SDS011;1916;51.798;12.246;2022-10-16T03:43:37;3.10;;;2.27;;
3801;SDS011;1916;51.798;12.246;2022-10-16T03:45:39;2.97;;;2.13;;
3801;SDS011;1916;51.798;12.246;2022-10-16T03:47:42;2.20;;;2.00;;
3801;SDS011;1916;51.798;12.246;2022-10-16T03:49:43;2.73;;;2.20;;
3801;SDS011;1916;51.798;12.246;2022-10-16T03:51:45;2.40;;;2.20;;
3801;SDS011;1916;51.798;12.246;2022-10-16T03:53:47;3.83;;;2.73;;
3801;SDS011;1916;51.798;12.246;2022-10-16T03:55:49;3.13;;;2.67;;
3801;SDS011;1916;51.798;12.246;2022-10-16T03:57:51;2.80;;;2.60;;
3801;SDS011;1916;51.798;12.246;2022-10-16T03:59:53;2.60;;;2.40;;
3801;SDS011;1916;51.798;12.246;2022-10-16T04:01:55;3.33;;;2.33;;
3801;SDS011;1916;51.798;12.246;2022-10-16T04:03:57;2.70;;;2.50;;
3801;SDS011;1916;51.798;12.246;2022-10-16T04:05:59;2.50;;;2.30;;
3801;SDS011;1916;51.798;12.246;2022-10-16T04:08:01;2.53;;;2.33;;
3801;SDS011;1916;51.798;12.246;2022-10-16T04:10:03;6.20;;;2.10;;
3801;SDS011;1916;51.798;12.246;2022-10-16T04:12:06;3.27;;;2.63;;
3801;SDS011;1916;51.798;12.246;2022-10-16T04:14:08;3.40;;;3.00;;
3801;SDS011;1916;51.798;12.246;2022-10-16T04:16:10;2.83;;;2.63;;
3801;SDS011;1916;51.798;12.246;2022-10-16T04:18:12;5.63;;;2.37;;
3801;SDS011;1916;51.798;12.246;2022-10-16T04:20:14;3.77;;;2.67;;
3801;SDS011;1916;51.798;12.246;2022-10-16T04:22:16;6.20;;;2.80;;
3801;SDS011;1916;51.798;12.246;2022-10-16T04:24:18;5.10;;;2.90;;
3801;SDS011;1916;51.798;12.246;2022-10-16T04:26:20;3.10;;;2.90;;
3801;SDS011;1916;51.798;12.246;2022-10-16T04:28:22;3.60;;;2.90;;
3801;SDS011;1916;51.798;12.246;2022-10-16T04:30:25;3.10;;;2.90;;
3801;SDS011;1916;51.798;12.246;2022-10-16T04:32:27;3.33;;;3.03;;
3801;SDS011;1916;51.798;12.246;2022-10-16T04:34:29;3.03;;;2.83;;
3801;SDS011;1916;51.798;12.246;2022-10-16T04:36:31;2.70;;;2.50;;
3801;SDS011;1916;51.798;12.246;2022-10-16T04:38:33;5.10;;;2.40;;
3801;SDS011;1916;51.798;12.246;2022-10-16T04:40:35;5.80;;;2.57;;
3801;SDS011;1916;51.798;12.246;2022-10-16T04:42:38;3.50;;;3.30;;
3801;SDS011;1916;51.798;12.246;2022-10-16T04:44:40;3.40;;;3.10;;
3801;SDS011;1916;51.798;12.246;2022-10-16T04:46:42;7.40;;;3.70;;
3801;SDS011;1916;51.798;12.246;2022-10-16T04:48:45;3.87;;;3.47;;
3801;SDS011;1916;51.798;12.246;2022-10-16T04:50:48;3.60;;;3.30;;
3801;SDS011;1916;51.798;12.246;2022-10-16T04:52:55;3.97;;;3.57;;
3801;SDS011;1916;51.798;12.246;2022-10-16T04:54:58;6.87;;;3.33;;
3801;SDS011;1916;51.798;12.246;2022-10-16T04:57:03;2.80;;;2.60;;
3801;SDS011;1916;51.798;12.246;2022-10-16T04:59:06;4.20;;;3.07;;
3801;SDS011;1916;51.798;12.246;2022-10-16T05:01:08;4.83;;;3.67;;
3801;SDS011;1916;51.798;12.246;2022-10-16T05:03:10;8.13;;;3.77;;
3801;SDS011;1916;51.798;12.246;2022-10-16T05:05:12;3.13;;;2.83;;
3801;SDS011;1916;51.798;12.246;2022-10-16T05:07:15;3.97;;;3.60;;
3801;SDS011;1916;51.798;12.246;2022-10-16T05:09:17;3.20;;;2.97;;
3801;SDS011;1916;51.798;12.246;2022-10-16T05:11:19;3.60;;;3.30;;
3801;SDS011;1916;51.798;12.246;2022-10-16T05:13:21;4.70;;;3.33;;
3801;SDS011;1916;51.798;12.246;2022-10-16T05:15:24;3.77;;;3.37;;
3801;SDS011;1916;51.798;12.246;2022-10-16T05:17:26;3.77;;;3.43;;
3801;SDS011;1916;51.798;12.246;2022-10-16T05:19:29;7.40;;;3.17;;
3801;SDS011;1916;51.798;12.246;2022-10-16T05:21:32;3.33;;;2.97;;
3801;SDS011;1916;51.798;12.246;2022-10-16T05:23:33;4.03;;;3.63;;
3801;SDS011;1916;51.798;12.246;2022-10-16T05:25:36;5.57;;;3.20;;
3801;SDS011;1916;51.798;12.246;2022-10-16T05:27:38;3.53;;;3.23;;
3801;SDS011;1916;51.798;12.246;2022-10-16T05:29:40;4.90;;;3.17;;
3801;SDS011;1916;51.798;12.246;2022-10-16T05:31:42;3.83;;;3.23;;
3801;SDS011;1916;51.798;12.246;2022-10-16T05:33:44;3.80;;;3.40;;
3801;SDS011;1916;51.798;12.246;2022-10-16T05:35:46;3.23;;;2.93;;
3801;SDS011;1916;51.798;12.246;2022-10-16T05:37:48;4.80;;;3.30;;
3801;SDS011;1916;51.798;12.246;2022-10-16T05:39:51;3.40;;;3.10;;
3801;SDS011;1916;51.798;12.246;2022-10-16T05:41:53;3.30;;;2.97;;
3801;SDS011;1916;51.798;12.246;2022-10-16T05:43:55;3.40;;;2.97;;
3801;SDS011;1916;51.798;12.246;2022-10-16T05:45:58;5.50;;;3.10;;
3801;SDS011;1916;51.798;12.246;2022-10-16T05:48:01;4.90;;;2.97;;
3801;SDS011;1916;51.798;12.246;2022-10-16T05:50:03;6.70;;;2.57;;
3801;SDS011;1916;51.798;12.246;2022-10-16T05:52:05;5.03;;;3.30;;
3801;SDS011;1916;51.798;12.246;2022-10-16T05:54:08;3.27;;;2.93;;
3801;SDS011;1916;51.798;12.246;2022-10-16T05:56:10;4.60;;;3.20;;
3801;SDS011;1916;51.798;12.246;2022-10-16T05:58:14;3.50;;;3.27;;
3801;SDS011;1916;51.798;12.246;2022-10-16T06:00:16;3.30;;;2.87;;
3801;SDS011;1916;51.798;12.246;2022-10-16T06:02:18;4.13;;;3.83;;
3801;SDS011;1916;51.798;12.246;2022-10-16T06:04:20;6.47;;;3.90;;
3801;SDS011;1916;51.798;12.246;2022-10-16T06:06:23;4.17;;;2.80;;
3801;SDS011;1916;51.798;12.246;2022-10-16T06:08:27;2.93;;;2.60;;
3801;SDS011;1916;51.798;12.246;2022-10-16T06:10:29;3.10;;;2.90;;
3801;SDS011;1916;51.798;12.246;2022-10-16T06:12:31;3.73;;;3.40;;
3801;SDS011;1916;51.798;12.246;2022-10-16T06:14:33;3.90;;;3.50;;
3801;SDS011;1916;51.798;12.246;2022-10-16T06:16:35;6.73;;;3.63;;
3801;SDS011;1916;51.798;12.246;2022-10-16T06:18:38;3.33;;;3.10;;
3801;SDS011;1916;51.798;12.246;2022-10-16T06:20:40;4.60;;;3.00;;
3801;SDS011;1916;51.798;12.246;2022-10-16T06:22:42;3.00;;;2.80;;
3801;SDS011;1916;51.798;12.246;2022-10-16T06:24:44;3.43;;;3.13;;
3801;SDS011;1916;51.798;12.246;2022-10-16T06:26:47;3.90;;;3.00;;
3801;SDS011;1916;51.798;12.246;2022-10-16T06:28:49;4.80;;;2.90;;
3801;SDS011;1916;51.798;12.246;2022-10-16T06:30:58;2.87;;;2.67;;
3801;SDS011;1916;51.798;12.246;2022-10-16T06:33:07;4.27;;;3.20;;
3801;SDS011;1916;51.798;12.246;2022-10-16T06:35:09;11.80;;;3.37;;
3801;SDS011;1916;51.798;12.246;2022-10-16T06:37:11;3.70;;;2.87;;
3801;SDS011;1916;51.798;12.246;2022-10-16T06:39:13;3.20;;;3.00;;
3801;SDS011;1916;51.798;12.246;2022-10-16T06:41:16;3.67;;;2.50;;
3801;SDS011;1916;51.798;12.246;2022-10-16T06:43:19;8.10;;;2.90;;
3801;SDS011;1916;51.798;12.246;2022-10-16T06:45:21;3.97;;;2.60;;
3801;SDS011;1916;51.798;12.246;2022-10-16T06:47:23;3.30;;;2.90;;
3801;SDS011;1916;51.798;12.246;2022-10-16T06:49:26;3.30;;;2.10;;
3801;SDS011;1916;51.798;12.246;2022-10-16T06:51:28;2.67;;;2.47;;
3801;SDS011;1916;51.798;12.246;2022-10-16T06:53:32;3.33;;;2.40;;
3801;SDS011;1916;51.798;12.246;2022-10-16T06:55:49;2.40;;;2.20;;
3801;SDS011;1916;51.798;12.246;2022-10-16T06:57:51;5.80;;;2.30;;
3801;SDS011;1916;51.798;12.246;2022-10-16T06:59:53;4.07;;;2.40;;
3801;SDS011;1916;51.798;12.246;2022-10-16T07:01:56;2.30;;;2.07;;
3801;SDS011;1916;51.798;12.246;2022-10-16T07:03:58;4.90;;;1.83;;
3801;SDS011;1916;51.798;12.246;2022-10-16T07:06:03;2.70;;;1.93;;
3801;SDS011;1916;51.798;12.246;2022-10-16T07:08:07;1.90;;;1.80;;
3801;SDS011;1916;51.798;12.246;2022-10-16T07:10:09;3.13;;;1.93;;
3801;SDS011;1916;51.798;12.246;2022-10-16T07:12:11;2.10;;;1.90;;
3801;SDS011;1916;51.798;12.246;2022-10-16T07:14:17;2.10;;;2.00;;
3801;SDS011;1916;51.798;12.246;2022-10-16T07:16:22;1.93;;;1.73;;
3801;SDS011;1916;51.798;12.246;2022-10-16T07:18:25;3.43;;;1.67;;
3801;SDS011;1916;51.798;12.246;2022-10-16T07:20:34;1.90;;;1.80;;
3801;SDS011;1916;51.798;12.246;2022-10-16T07:22:36;1.60;;;1.50;;
3801;SDS011;1916;51.798;12.246;2022-10-16T07:24:38;2.03;;;1.93;;
3801;SDS011;1916;51.798;12.246;2022-10-16T07:26:41;3.63;;;1.80;;
3801;SDS011;1916;51.798;12.246;2022-10-16T07:28:45;2.93;;;1.90;;
3801;SDS011;1916;51.798;12.246;2022-10-16T07:30:47;2.20;;;2.00;;
3801;SDS011;1916;51.798;12.246;2022-10-16T07:32:49;2.17;;;2.03;;
3801;SDS011;1916;51.798;12.246;2022-10-16T07:34:52;3.07;;;2.77;;
3801;SDS011;1916;51.798;12.246;2022-10-16T07:36:54;2.70;;;1.50;;
3801;SDS011;1916;51.798;12.246;2022-10-16T07:38:56;2.30;;;1.63;;
3801;SDS011;1916;51.798;12.246;2022-10-16T07:41:02;2.13;;;1.93;;
3801;SDS011;1916;51.798;12.246;2022-10-16T07:43:05;1.80;;;1.70;;
3801;SDS011;1916;51.798;12.246;2022-10-16T07:45:07;1.67;;;1.57;;
3801;SDS011;1916;51.798;12.246;2022-10-16T07:47:09;1.50;;;1.40;;
3801;SDS011;1916;51.798;12.246;2022-10-16T07:49:11;2.20;;;1.87;;
3801;SDS011;1916;51.798;12.246;2022-10-16T07:51:14;2.43;;;2.23;;
3801;SDS011;1916;51.798;12.246;2022-10-16T07:53:17;3.13;;;1.47;;
3801;SDS011;1916;51.798;12.246;2022-10-16T07:55:24;3.40;;;1.60;;
3801;SDS011;1916;51.798;12.246;2022-10-16T07:57:26;1.73;;;1.40;;
3801;SDS011;1916;51.798;12.246;2022-10-16T07:59:28;2.20;;;1.73;;
3801;SDS011;1916;51.798;12.246;2022-10-16T08:01:30;3.03;;;1.40;;
3801;SDS011;1916;51.798;12.246;2022-10-16T08:03:33;2.43;;;1.50;;
3801;SDS011;1916;51.798;12.246;2022-10-16T08:05:35;1.27;;;1.17;;
3801;SDS011;1916;51.798;12.246;2022-10-16T08:07:37;2.30;;;1.53;;
3801;SDS011;1916;51.798;12.246;2022-10-16T08:09:39;1.60;;;1.20;;
3801;SDS011;1916;51.798;12.246;2022-10-16T08:11:41;2.50;;;1.00;;
3801;SDS011;1916;51.798;12.246;2022-10-16T08:13:43;2.87;;;1.40;;
3801;SDS011;1916;51.798;12.246;2022-10-16T08:15:45;1.20;;;1.10;;
3801;SDS011;1916;51.798;12.246;2022-10-16T08:17:57;1.30;;;1.17;;
3801;SDS011;1916;51.798;12.246;2022-10-16T08:20:00;1.53;;;1.00;;
3801;SDS011;1916;51.798;12.246;2022-10-16T08:22:02;1.20;;;1.10;;
3801;SDS011;1916;51.798;12.246;2022-10-16T08:24:04;1.50;;;1.13;;
3801;SDS011;1916;51.798;12.246;2022-10-16T08:26:07;1.23;;;1.10;;
3801;SDS011;1916;51.798;12.246;2022-10-16T08:28:10;2.80;;;1.50;;
3801;SDS011;1916;51.798;12.246;2022-10-16T08:30:12;2.17;;;1.10;;
3801;SDS011;1916;51.798;12.246;2022-10-16T08:32:15;2.33;;;1.40;;
3801;SDS011;1916;51.798;12.246;2022-10-16T08:34:17;2.33;;;1.30;;
3801;SDS011;1916;51.798;12.246;2022-10-16T08:36:19;2.00;;;1.20;;
3801;SDS011;1916;51.798;12.246;2022-10-16T08:38:21;1.20;;;1.10;;
3801;SDS011;1916;51.798;12.246;2022-10-16T08:40:30;1.23;;;1.07;;
3801;SDS011;1916;51.798;12.246;2022-10-16T08:42:40;2.50;;;1.27;;
3801;SDS011;1916;51.798;12.246;2022-10-16T08:47:25;2.73;;;1.30;;
3801;SDS011;1916;51.798;12.246;2022-10-16T08:49:41;1.13;;;1.03;;
3801;SDS011;1916;51.798;12.246;2022-10-16T08:51:49;2.00;;;1.17;;
3801;SDS011;1916;51.798;12.246;2022-10-16T08:53:54;1.80;;;1.40;;
3801;SDS011;1916;51.798;12.246;2022-10-16T08:55:57;1.20;;;1.10;;
3801;SDS011;1916;51.798;12.246;2022-10-16T08:58:00;1.60;;;1.20;;
3801;SDS011;1916;51.798;12.246;2022-10-16T09:00:12;4.10;;;1.27;;
3801;SDS011;1916;51.798;12.246;2022-10-16T09:02:26;1.57;;;1.20;;
3801;SDS011;1916;51.798;12.246;2022-10-16T09:06:57;2.50;;;1.20;;
3801;SDS011;1916;51.798;12.246;2022-10-16T09:09:16;4.60;;;1.80;;
3801;SDS011;1916;51.798;12.246;2022-10-16T09:11:46;2.47;;;1.90;;
3801;SDS011;1916;51.798;12.246;2022-10-16T09:16:24;1.20;;;1.10;;
3801;SDS011;1916;51.798;12.246;2022-10-16T09:23:44;1.30;;;1.20;;
3801;SDS011;1916;51.798;12.246;2022-10-16T09:25:48;2.30;;;1.23;;
3801;SDS011;1916;51.798;12.246;2022-10-16T09:27:52;1.30;;;1.20;;
3801;SDS011;1916;51.798;12.246;2022-10-16T09:29:55;1.80;;;1.23;;
3801;SDS011;1916;51.798;12.246;2022-10-16T09:32:07;1.40;;;1.30;;
3801;SDS011;1916;51.798;12.246;2022-10-16T09:36:39;1.20;;;1.10;;
3801;SDS011;1916;51.798;12.246;2022-10-16T09:38:42;1.63;;;1.20;;
3801;SDS011;1916;51.798;12.246;2022-10-16T09:40:45;2.10;;;1.30;;
3801;SDS011;1916;51.798;12.246;2022-10-16T09:42:55;1.20;;;1.10;;
3801;SDS011;1916;51.798;12.246;2022-10-16T09:45:19;1.27;;;1.10;;
3801;SDS011;1916;51.798;12.246;2022-10-16T09:47:23;2.70;;;1.07;;
3801;SDS011;1916;51.798;12.246;2022-10-16T09:49:28;1.90;;;1.30;;
3801;SDS011;1916;51.798;12.246;2022-10-16T09:51:31;1.33;;;1.00;;
3801;SDS011;1916;51.798;12.246;2022-10-16T09:53:43;1.70;;;1.27;;
3801;SDS011;1916;51.798;12.246;2022-10-16T09:55:49;2.50;;;1.23;;
3801;SDS011;1916;51.798;12.246;2022-10-16T09:57:53;1.90;;;1.20;;
3801;SDS011;1916;51.798;12.246;2022-10-16T09:59:56;3.17;;;1.40;;
3801;SDS011;1916;51.798;12.246;2022-10-16T10:02:03;1.77;;;1.20;;
3801;SDS011;1916;51.798;12.246;2022-10-16T10:04:10;3.83;;;1.60;;
3801;SDS011;1916;51.798;12.246;2022-10-16T10:06:17;1.37;;;1.27;;
3801;SDS011;1916;51.798;12.246;2022-10-16T10:08:26;1.47;;;1.17;;
3801;SDS011;1916;51.798;12.246;2022-10-16T10:10:29;5.33;;;1.00;;
3801;SDS011;1916;51.798;12.246;2022-10-16T10:12:32;1.20;;;1.10;;
3801;SDS011;1916;51.798;12.246;2022-10-16T10:14:38;1.10;;;1.00;;
3801;SDS011;1916;51.798;12.246;2022-10-16T10:16:41;1.90;;;1.10;;
3801;SDS011;1916;51.798;12.246;2022-10-16T10:18:43;1.30;;;1.20;;
3801;SDS011;1916;51.798;12.246;2022-10-16T10:20:45;1.10;;;1.00;;
3801;SDS011;1916;51.798;12.246;2022-10-16T10:22:47;1.00;;;1.00;;
3801;SDS011;1916;51.798;12.246;2022-10-16T10:27:11;1.20;;;1.10;;
3801;SDS011;1916;51.798;12.246;2022-10-16T10:29:23;0.90;;;0.90;;
3801;SDS011;1916;51.798;12.246;2022-10-16T10:33:57;1.30;;;1.20;;
3801;SDS011;1916;51.798;12.246;2022-10-16T10:36:30;2.93;;;1.10;;
3801;SDS011;1916;51.798;12.246;2022-10-16T10:45:47;1.20;;;1.10;;
3801;SDS011;1916;51.798;12.246;2022-10-16T10:57:28;4.73;;;1.30;;
3801;SDS011;1916;51.798;12.246;2022-10-16T11:02:00;3.70;;;1.63;;
3801;SDS011;1916;51.798;12.246;2022-10-16T11:04:22;1.40;;;1.30;;
3801;SDS011;1916;51.798;12.246;2022-10-16T11:06:37;1.90;;;1.57;;
3801;SDS011;1916;51.798;12.246;2022-10-16T11:08:48;1.67;;;1.33;;
3801;SDS011;1916;51.798;12.246;2022-10-16T11:10:54;1.10;;;1.00;;
3801;SDS011;1916;51.798;12.246;2022-10-16T11:13:09;1.73;;;1.03;;
3801;SDS011;1916;51.798;12.246;2022-10-16T11:15:20;1.60;;;1.30;;
3801;SDS011;1916;51.798;12.246;2022-10-16T11:17:37;4.30;;;1.00;;
3801;SDS011;1916;51.798;12.246;2022-10-16T11:19:43;1.90;;;1.13;;
3801;SDS011;1916;51.798;12.246;2022-10-16T11:21:50;1.10;;;1.00;;
3801;SDS011;1916;51.798;12.246;2022-10-16T11:24:00;1.53;;;1.00;;
3801;SDS011;1916;51.798;12.246;2022-10-16T11:26:05;1.83;;;1.10;;
3801;SDS011;1916;51.798;12.246;2022-10-16T11:28:25;2.50;;;1.50;;
3801;SDS011;1916;51.798;12.246;2022-10-16T11:31:22;1.47;;;0.90;;
3801;SDS011;1916;51.798;12.246;2022-10-16T11:33:27;1.63;;;1.10;;
3801;SDS011;1916;51.798;12.246;2022-10-16T11:37:57;1.57;;;1.00;;
3801;SDS011;1916;51.798;12.246;2022-10-16T11:40:09;0.80;;;0.80;;
3801;SDS011;1916;51.798;12.246;2022-10-16T11:42:40;1.07;;;0.97;;
3801;SDS011;1916;51.798;12.246;2022-10-16T11:44:45;3.07;;;1.00;;
3801;SDS011;1916;51.798;12.246;2022-10-16T11:46:52;1.13;;;1.00;;
3801;SDS011;1916;51.798;12.246;2022-10-16T11:49:24;1.90;;;1.80;;
3801;SDS011;1916;51.798;12.246;2022-10-16T11:51:35;1.33;;;1.17;;
3801;SDS011;1916;51.798;12.246;2022-10-16T11:55:47;1.33;;;1.07;;
3801;SDS011;1916;51.798;12.246;2022-10-16T11:57:53;1.40;;;1.17;;
3801;SDS011;1916;51.798;12.246;2022-10-16T12:00:01;1.10;;;0.93;;
3801;SDS011;1916;51.798;12.246;2022-10-16T12:04:40;2.07;;;1.20;;
3801;SDS011;1916;51.798;12.246;2022-10-16T12:06:49;1.30;;;1.20;;
3801;SDS011;1916;51.798;12.246;2022-10-16T12:08:54;2.70;;;1.40;;
3801;SDS011;1916;51.798;12.246;2022-10-16T12:11:06;1.20;;;1.10;;
3801;SDS011;1916;51.798;12.246;2022-10-16T12:15:31;1.37;;;1.20;;
3801;SDS011;1916;51.798;12.246;2022-10-16T12:17:54;1.00;;;1.00;;
3801;SDS011;1916;51.798;12.246;2022-10-16T12:19:58;1.40;;;1.23;;
3801;SDS011;1916;51.798;12.246;2022-10-16T12:22:28;2.33;;;1.10;;
3801;SDS011;1916;51.798;12.246;2022-10-16T12:24:38;1.13;;;0.97;;
3801;SDS011;1916;51.798;12.246;2022-10-16T12:26:44;1.13;;;1.00;;
3801;SDS011;1916;51.798;12.246;2022-10-16T12:28:47;1.60;;;0.90;;
3801;SDS011;1916;51.798;12.246;2022-10-16T12:31:00;19.37;;;2.53;;
3801;SDS011;1916;51.798;12.246;2022-10-16T12:33:15;1.87;;;0.90;;
3801;SDS011;1916;51.798;12.246;2022-10-16T12:35:23;3.47;;;1.00;;
3801;SDS011;1916;51.798;12.246;2022-10-16T12:37:32;2.80;;;0.80;;
3801;SDS011;1916;51.798;12.246;2022-10-16T12:39:36;1.40;;;1.00;;
3801;SDS011;1916;51.798;12.246;2022-10-16T12:41:38;1.10;;;0.80;;
3801;SDS011;1916;51.798;12.246;2022-10-16T12:43:42;1.00;;;0.90;;
3801;SDS011;1916;51.798;12.246;2022-10-16T12:45:45;1.03;;;0.93;;
3801;SDS011;1916;51.798;12.246;2022-10-16T12:47:49;1.10;;;1.00;;
3801;SDS011;1916;51.798;12.246;2022-10-16T12:49:53;0.97;;;0.87;;
3801;SDS011;1916;51.798;12.246;2022-10-16T12:51:56;1.90;;;0.90;;
3801;SDS011;1916;51.798;12.246;2022-10-16T12:54:20;1.30;;;0.93;;
3801;SDS011;1916;51.798;12.246;2022-10-16T13:03:43;1.53;;;0.93;;
3801;SDS011;1916;51.798;12.246;2022-10-16T13:08:44;2.90;;;1.00;;
3801;SDS011;1916;51.798;12.246;2022-10-16T13:28:59;9.60;;;0.90;;
3801;SDS011;1916;51.798;12.246;2022-10-16T13:31:03;2.00;;;0.80;;
3801;SDS011;1916;51.798;12.246;2022-10-16T13:33:27;4.33;;;0.93;;
3801;SDS011;1916;51.798;12.246;2022-10-16T13:35:34;1.00;;;0.80;;
3801;SDS011;1916;51.798;12.246;2022-10-16T13:37:37;1.57;;;0.80;;
3801;SDS011;1916;51.798;12.246;2022-10-16T13:39:39;1.23;;;1.07;;
3801;SDS011;1916;51.798;12.246;2022-10-16T13:41:41;0.80;;;0.80;;
3801;SDS011;1916;51.798;12.246;2022-10-16T13:43:44;2.07;;;1.00;;
3801;SDS011;1916;51.798;12.246;2022-10-16T13:45:57;1.67;;;0.90;;
3801;SDS011;1916;51.798;12.246;2022-10-16T13:48:03;1.07;;;0.80;;
3801;SDS011;1916;51.798;12.246;2022-10-16T13:50:09;0.80;;;0.80;;
3801;SDS011;1916;51.798;12.246;2022-10-16T13:52:15;1.20;;;0.93;;
3801;SDS011;1916;51.798;12.246;2022-10-16T13:54:19;1.70;;;1.60;;
3801;SDS011;1916;51.798;12.246;2022-10-16T13:56:21;1.00;;;0.70;;
3801;SDS011;1916;51.798;12.246;2022-10-16T13:58:24;1.67;;;0.80;;
3801;SDS011;1916;51.798;12.246;2022-10-16T14:00:28;0.90;;;0.80;;
3801;SDS011;1916;51.798;12.246;2022-10-16T14:02:34;2.10;;;1.10;;
3801;SDS011;1916;51.798;12.246;2022-10-16T14:04:38;1.10;;;1.00;;
3801;SDS011;1916;51.798;12.246;2022-10-16T14:06:41;1.30;;;1.20;;
3801;SDS011;1916;51.798;12.246;2022-10-16T14:08:48;1.57;;;1.00;;
3801;SDS011;1916;51.798;12.246;2022-10-16T14:10:53;1.97;;;1.10;;
3801;SDS011;1916;51.798;12.246;2022-10-16T14:13:03;1.30;;;1.03;;
3801;SDS011;1916;51.798;12.246;2022-10-16T14:15:15;2.07;;;1.13;;
3801;SDS011;1916;51.798;12.246;2022-10-16T14:17:19;1.10;;;1.00;;
3801;SDS011;1916;51.798;12.246;2022-10-16T14:19:25;1.00;;;0.70;;
3801;SDS011;1916;51.798;12.246;2022-10-16T14:21:29;1.20;;;1.00;;